Garden Valley, CA (95633)

12:21 AM PST on December 08, 2016 (GMT -0800)
Garden Park | | Change Station

Elev 2070 ft 38.83 °N, 120.85 °W | Updated 44 seconds ago

Rain
Rain
39.9 °F
Feels Like 40 °F
N
0.0
Wind Variable Wind from ENE
Gusts 0.0 mph

Today
High -- | Low -- °F
--% Chance of Precip.
Yesterday
High -- | Low -- °F
Precip. -- in
Pressure 30.10 in
Visibility 7.0 miles
Clouds Overcast 3200 ft
Windchill 40 °F
Dew Point 39 °F
Humidity 95%
Rainfall 0.00 in
Snow Depth Not available.
7:09 AM 4:41 PM
First Quarter, 61% visible
METAR KPVF 080755Z AUTO 00000KT 7SM OVC032 03/03 A3010 RMK AO1 P0003
Pressure 30.10 in
Visibility 7.0 miles
Clouds Overcast 3200 ft
Windchill 40 °F
Dew Point 39 °F
Humidity 95%
Rainfall 0.00 in
Snow Depth Not available.
7:09 AM 4:41 PM
First Quarter, 61% visible
METAR KPVF 080755Z AUTO 00000KT 7SM OVC032 03/03 A3010 RMK AO1 P0003

10-Day Weather Forecast

Almanac

Astronomy

Dec. 08, 2016 Rise Set
Actual Time
Civil Twilight
Nautical Twilight
Astronomical Twilight
Moon
Length of Visible Light
Length of Day
Tomorrow will be .
, % of the Moon is Illuminated

Today's Extremes

State Highs State Lows

Community

WunderPhotos

Upload Photos

1,956,259 photos uploaded!

WunderBlog® & News

Nearby

Air Quality

  Air Quality AQ Index Pollutant
Not available.

Snow Depth

Station Depth Elevation

Earthquake Activity

City Distance Mag. Time & Date
Minimum magnitude displayed is 2.5.

Coastal Water Temperatures

Place Temperature

Stations

Nearby Weather Stations

Station Location Temp. Windchill Dew Point Humidity Wind Precip. Elev Updated Type
                   

Watches & Warnings

There are currently no watches in effect.